sensor_id;sensor_type;location;lat;lon;timestamp;temperature;humidity
35894;DHT22;21994;48.204;16.516;2023-02-25T00:01:20;10.80;99.90
35894;DHT22;21994;48.204;16.516;2023-02-25T00:03:46;10.80;99.90
35894;DHT22;21994;48.204;16.516;2023-02-25T00:06:13;10.80;99.90
35894;DHT22;21994;48.204;16.516;2023-02-25T00:08:41;10.80;99.90
35894;DHT22;21994;48.204;16.516;2023-02-25T00:11:07;10.80;99.90
35894;DHT22;21994;48.204;16.516;2023-02-25T00:13:37;10.80;99.90
35894;DHT22;21994;48.204;16.516;2023-02-25T00:16:04;10.80;99.90
35894;DHT22;21994;48.204;16.516;2023-02-25T00:18:31;10.70;99.90
35894;DHT22;21994;48.204;16.516;2023-02-25T00:20:57;10.70;99.90
35894;DHT22;21994;48.204;16.516;2023-02-25T00:23:24;10.70;99.90
35894;DHT22;21994;48.204;16.516;2023-02-25T00:25:56;10.60;99.90
35894;DHT22;21994;48.204;16.516;2023-02-25T00:28:23;10.60;99.90
35894;DHT22;21994;48.204;16.516;2023-02-25T00:30:49;10.50;99.90
35894;DHT22;21994;48.204;16.516;2023-02-25T00:33:14;10.50;99.90
35894;DHT22;21994;48.204;16.516;2023-02-25T00:35:40;10.40;99.90
35894;DHT22;21994;48.204;16.516;2023-02-25T00:38:06;10.30;99.90
35894;DHT22;21994;48.204;16.516;2023-02-25T00:40:36;10.10;99.90
35894;DHT22;21994;48.204;16.516;2023-02-25T00:43:02;10.10;99.90
35894;DHT22;21994;48.204;16.516;2023-02-25T00:45:28;10.10;99.90
35894;DHT22;21994;48.204;16.516;2023-02-25T00:47:54;10.10;99.90
35894;DHT22;21994;48.204;16.516;2023-02-25T00:50:20;10.00;99.90
35894;DHT22;21994;48.204;16.516;2023-02-25T00:52:45;10.00;99.90
35894;DHT22;21994;48.204;16.516;2023-02-25T00:55:11;10.00;99.90
35894;DHT22;21994;48.204;16.516;2023-02-25T00:57:37;10.00;99.90
35894;DHT22;21994;48.204;16.516;2023-02-25T01:00:04;9.90;99.90
35894;DHT22;21994;48.204;16.516;2023-02-25T01:02:34;9.90;99.90
35894;DHT22;21994;48.204;16.516;2023-02-25T01:05:00;9.90;99.90
35894;DHT22;21994;48.204;16.516;2023-02-25T01:07:26;9.80;99.90
35894;DHT22;21994;48.204;16.516;2023-02-25T01:09:55;9.70;99.90
35894;DHT22;21994;48.204;16.516;2023-02-25T01:12:21;9.60;99.90
35894;DHT22;21994;48.204;16.516;2023-02-25T01:14:47;9.60;99.90
35894;DHT22;21994;48.204;16.516;2023-02-25T01:17:13;9.50;99.90
35894;DHT22;21994;48.204;16.516;2023-02-25T01:19:39;9.50;99.90
35894;DHT22;21994;48.204;16.516;2023-02-25T01:22:05;9.40;99.90
35894;DHT22;21994;48.204;16.516;2023-02-25T01:24:31;9.40;99.90
35894;DHT22;21994;48.204;16.516;2023-02-25T01:26:58;9.30;99.90
35894;DHT22;21994;48.204;16.516;2023-02-25T01:29:27;9.30;99.90
35894;DHT22;21994;48.204;16.516;2023-02-25T01:32:00;9.30;99.90
35894;DHT22;21994;48.204;16.516;2023-02-25T01:34:26;9.10;99.90
35894;DHT22;21994;48.204;16.516;2023-02-25T01:36:53;8.70;99.90
35894;DHT22;21994;48.204;16.516;2023-02-25T01:39:20;8.60;99.90
35894;DHT22;21994;48.204;16.516;2023-02-25T01:41:48;8.50;99.90
35894;DHT22;21994;48.204;16.516;2023-02-25T01:44:17;8.40;99.90
35894;DHT22;21994;48.204;16.516;2023-02-25T01:46:45;8.30;99.90
35894;DHT22;21994;48.204;16.516;2023-02-25T01:52:08;8.10;99.90
35894;DHT22;21994;48.204;16.516;2023-02-25T01:54:40;8.00;99.90
35894;DHT22;21994;48.204;16.516;2023-02-25T01:57:07;8.00;99.90
35894;DHT22;21994;48.204;16.516;2023-02-25T01:59:34;7.90;99.90
35894;DHT22;21994;48.204;16.516;2023-02-25T02:02:01;7.90;99.90
35894;DHT22;21994;48.204;16.516;2023-02-25T02:04:27;7.70;99.90
35894;DHT22;21994;48.204;16.516;2023-02-25T02:06:53;7.60;99.90
35894;DHT22;21994;48.204;16.516;2023-02-25T02:09:20;7.50;99.90
35894;DHT22;21994;48.204;16.516;2023-02-25T02:11:48;7.40;99.90
35894;DHT22;21994;48.204;16.516;2023-02-25T02:14:17;7.30;99.90
35894;DHT22;21994;48.204;16.516;2023-02-25T02:16:52;7.30;99.90
35894;DHT22;21994;48.204;16.516;2023-02-25T02:19:26;7.20;99.90
35894;DHT22;21994;48.204;16.516;2023-02-25T02:41:37;6.70;99.90
35894;DHT22;21994;48.204;16.516;2023-02-25T02:44:17;6.70;99.90
35894;DHT22;21994;48.204;16.516;2023-02-25T02:46:58;6.70;99.90
35894;DHT22;21994;48.204;16.516;2023-02-25T02:49:38;6.60;99.90
35894;DHT22;21994;48.204;16.516;2023-02-25T02:52:09;6.50;99.90
35894;DHT22;21994;48.204;16.516;2023-02-25T02:54:44;6.50;99.90
35894;DHT22;21994;48.204;16.516;2023-02-25T02:57:16;6.50;99.90
35894;DHT22;21994;48.204;16.516;2023-02-25T02:59:49;6.50;99.90
35894;DHT22;21994;48.204;16.516;2023-02-25T03:02:34;6.50;99.90
35894;DHT22;21994;48.204;16.516;2023-02-25T03:05:03;6.50;99.90
35894;DHT22;21994;48.204;16.516;2023-02-25T03:07:31;6.50;99.90
35894;DHT22;21994;48.204;16.516;2023-02-25T03:10:00;6.50;99.90
35894;DHT22;21994;48.204;16.516;2023-02-25T03:12:29;6.50;99.90
35894;DHT22;21994;48.204;16.516;2023-02-25T03:14:55;6.40;99.90
35894;DHT22;21994;48.204;16.516;2023-02-25T03:17:23;6.50;99.90
35894;DHT22;21994;48.204;16.516;2023-02-25T03:22:37;6.40;99.90
35894;DHT22;21994;48.204;16.516;2023-02-25T03:25:09;6.40;99.90
35894;DHT22;21994;48.204;16.516;2023-02-25T03:27:47;6.30;99.90
35894;DHT22;21994;48.204;16.516;2023-02-25T03:30:21;6.20;99.90
35894;DHT22;21994;48.204;16.516;2023-02-25T03:33:03;6.10;99.90
35894;DHT22;21994;48.204;16.516;2023-02-25T03:35:31;6.10;99.90
35894;DHT22;21994;48.204;16.516;2023-02-25T03:38:01;6.10;99.90
35894;DHT22;21994;48.204;16.516;2023-02-25T03:40:35;6.00;99.90
35894;DHT22;21994;48.204;16.516;2023-02-25T03:43:04;6.00;99.90
35894;DHT22;21994;48.204;16.516;2023-02-25T03:45:32;5.90;99.90
35894;DHT22;21994;48.204;16.516;2023-02-25T03:48:00;5.80;99.90
35894;DHT22;21994;48.204;16.516;2023-02-25T03:50:28;5.70;99.90
35894;DHT22;21994;48.204;16.516;2023-02-25T03:52:56;5.60;99.90
35894;DHT22;21994;48.204;16.516;2023-02-25T03:55:22;5.50;99.90
35894;DHT22;21994;48.204;16.516;2023-02-25T03:57:49;5.40;99.90
35894;DHT22;21994;48.204;16.516;2023-02-25T04:00:18;5.40;99.90
35894;DHT22;21994;48.204;16.516;2023-02-25T04:02:57;5.40;99.90
35894;DHT22;21994;48.204;16.516;2023-02-25T04:05:23;5.40;99.90
35894;DHT22;21994;48.204;16.516;2023-02-25T04:07:56;5.30;99.90
35894;DHT22;21994;48.204;16.516;2023-02-25T04:10:23;5.30;99.90
35894;DHT22;21994;48.204;16.516;2023-02-25T04:12:49;5.30;99.90
35894;DHT22;21994;48.204;16.516;2023-02-25T04:15:15;5.30;99.90
35894;DHT22;21994;48.204;16.516;2023-02-25T04:17:51;5.30;99.90
35894;DHT22;21994;48.204;16.516;2023-02-25T04:20:16;5.30;99.90
35894;DHT22;21994;48.204;16.516;2023-02-25T04:22:42;5.30;99.90
35894;DHT22;21994;48.204;16.516;2023-02-25T04:25:08;5.30;99.90
35894;DHT22;21994;48.204;16.516;2023-02-25T04:27:36;5.30;99.90
35894;DHT22;21994;48.204;16.516;2023-02-25T04:30:02;5.30;99.90
35894;DHT22;21994;48.204;16.516;2023-02-25T04:32:28;5.30;99.90
35894;DHT22;21994;48.204;16.516;2023-02-25T04:34:54;5.30;99.90
35894;DHT22;21994;48.204;16.516;2023-02-25T04:37:20;5.30;99.90
35894;DHT22;21994;48.204;16.516;2023-02-25T04:39:46;5.40;99.90
35894;DHT22;21994;48.204;16.516;2023-02-25T04:42:11;5.40;99.90
35894;DHT22;21994;48.204;16.516;2023-02-25T04:44:37;5.30;99.90
35894;DHT22;21994;48.204;16.516;2023-02-25T04:47:04;5.30;99.90
35894;DHT22;21994;48.204;16.516;2023-02-25T04:49:29;5.30;99.90
35894;DHT22;21994;48.204;16.516;2023-02-25T04:51:55;5.30;99.90
35894;DHT22;21994;48.204;16.516;2023-02-25T04:54:21;5.40;99.90
35894;DHT22;21994;48.204;16.516;2023-02-25T04:56:47;5.30;99.90
35894;DHT22;21994;48.204;16.516;2023-02-25T04:59:13;5.30;99.90
35894;DHT22;21994;48.204;16.516;2023-02-25T05:01:39;5.30;99.90
35894;DHT22;21994;48.204;16.516;2023-02-25T05:04:05;5.30;99.90
35894;DHT22;21994;48.204;16.516;2023-02-25T05:06:31;5.20;99.90
35894;DHT22;21994;48.204;16.516;2023-02-25T05:08:57;5.20;99.90
35894;DHT22;21994;48.204;16.516;2023-02-25T05:11:24;5.20;99.90
35894;DHT22;21994;48.204;16.516;2023-02-25T05:13:51;5.20;99.90
35894;DHT22;21994;48.204;16.516;2023-02-25T05:16:17;5.10;99.90
35894;DHT22;21994;48.204;16.516;2023-02-25T05:18:44;5.20;99.90
35894;DHT22;21994;48.204;16.516;2023-02-25T05:21:21;5.10;99.90
35894;DHT22;21994;48.204;16.516;2023-02-25T05:23:49;5.10;99.90
35894;DHT22;21994;48.204;16.516;2023-02-25T05:26:16;5.10;99.90
35894;DHT22;21994;48.204;16.516;2023-02-25T05:28:52;5.10;99.90
35894;DHT22;21994;48.204;16.516;2023-02-25T05:31:20;5.10;99.90
35894;DHT22;21994;48.204;16.516;2023-02-25T05:33:47;5.10;99.90
35894;DHT22;21994;48.204;16.516;2023-02-25T05:36:13;5.10;99.90
35894;DHT22;21994;48.204;16.516;2023-02-25T05:38:40;5.00;99.90
35894;DHT22;21994;48.204;16.516;2023-02-25T05:41:06;5.10;99.90
35894;DHT22;21994;48.204;16.516;2023-02-25T05:43:32;5.10;99.90
35894;DHT22;21994;48.204;16.516;2023-02-25T05:45:59;5.10;99.90
35894;DHT22;21994;48.204;16.516;2023-02-25T05:48:27;5.00;99.90
35894;DHT22;21994;48.204;16.516;2023-02-25T05:51:01;5.00;99.90
35894;DHT22;21994;48.204;16.516;2023-02-25T05:53:29;5.00;99.90
35894;DHT22;21994;48.204;16.516;2023-02-25T05:55:56;5.10;99.90
35894;DHT22;21994;48.204;16.516;2023-02-25T05:58:22;5.10;99.90
35894;DHT22;21994;48.204;16.516;2023-02-25T06:00:48;5.00;99.90
35894;DHT22;21994;48.204;16.516;2023-02-25T06:03:14;5.00;99.90
35894;DHT22;21994;48.204;16.516;2023-02-25T06:05:40;5.00;99.90
35894;DHT22;21994;48.204;16.516;2023-02-25T06:08:07;5.00;99.90
35894;DHT22;21994;48.204;16.516;2023-02-25T06:10:34;5.10;99.90
35894;DHT22;21994;48.204;16.516;2023-02-25T06:13:09;5.00;99.90
35894;DHT22;21994;48.204;16.516;2023-02-25T06:15:39;5.00;99.90
35894;DHT22;21994;48.204;16.516;2023-02-25T06:18:05;5.00;99.90
35894;DHT22;21994;48.204;16.516;2023-02-25T06:20:32;5.20;99.90
35894;DHT22;21994;48.204;16.516;2023-02-25T06:22:59;5.10;99.90
35894;DHT22;21994;48.204;16.516;2023-02-25T06:25:26;5.20;99.90
35894;DHT22;21994;48.204;16.516;2023-02-25T06:28:00;5.20;99.90
35894;DHT22;21994;48.204;16.516;2023-02-25T06:30:27;5.30;99.90
35894;DHT22;21994;48.204;16.516;2023-02-25T06:32:53;5.30;99.90
35894;DHT22;21994;48.204;16.516;2023-02-25T06:35:19;5.30;99.90
35894;DHT22;21994;48.204;16.516;2023-02-25T06:37:53;5.20;99.90
35894;DHT22;21994;48.204;16.516;2023-02-25T06:40:20;5.20;99.90
35894;DHT22;21994;48.204;16.516;2023-02-25T06:42:46;5.10;99.90
35894;DHT22;21994;48.204;16.516;2023-02-25T06:45:21;5.20;99.90
35894;DHT22;21994;48.204;16.516;2023-02-25T06:47:48;5.20;99.90
35894;DHT22;21994;48.204;16.516;2023-02-25T06:50:14;5.20;99.90
35894;DHT22;21994;48.204;16.516;2023-02-25T06:52:40;5.20;99.90
35894;DHT22;21994;48.204;16.516;2023-02-25T06:55:06;5.20;99.90
35894;DHT22;21994;48.204;16.516;2023-02-25T06:57:32;5.20;99.90
35894;DHT22;21994;48.204;16.516;2023-02-25T06:59:58;5.30;99.90
35894;DHT22;21994;48.204;16.516;2023-02-25T07:02:24;5.30;99.90
35894;DHT22;21994;48.204;16.516;2023-02-25T07:04:53;5.20;99.90
35894;DHT22;21994;48.204;16.516;2023-02-25T07:07:19;5.30;99.90
35894;DHT22;21994;48.204;16.516;2023-02-25T07:09:46;5.30;99.90
35894;DHT22;21994;48.204;16.516;2023-02-25T07:12:11;5.30;99.90
35894;DHT22;21994;48.204;16.516;2023-02-25T07:14:37;5.30;99.90
35894;DHT22;21994;48.204;16.516;2023-02-25T07:17:03;5.30;99.90
35894;DHT22;21994;48.204;16.516;2023-02-25T07:19:29;5.30;99.90
35894;DHT22;21994;48.204;16.516;2023-02-25T07:21:55;5.40;99.90
35894;DHT22;21994;48.204;16.516;2023-02-25T07:24:21;5.50;99.90
35894;DHT22;21994;48.204;16.516;2023-02-25T07:26:47;5.70;99.90
35894;DHT22;21994;48.204;16.516;2023-02-25T07:29:13;5.80;99.90
35894;DHT22;21994;48.204;16.516;2023-02-25T07:31:39;5.80;99.90
35894;DHT22;21994;48.204;16.516;2023-02-25T07:34:05;5.90;99.90
35894;DHT22;21994;48.204;16.516;2023-02-25T07:36:31;5.90;99.90
35894;DHT22;21994;48.204;16.516;2023-02-25T07:38:59;5.90;99.90
35894;DHT22;21994;48.204;16.516;2023-02-25T07:41:27;5.90;99.90
35894;DHT22;21994;48.204;16.516;2023-02-25T07:43:53;5.90;99.90
35894;DHT22;21994;48.204;16.516;2023-02-25T07:46:19;5.90;99.90
35894;DHT22;21994;48.204;16.516;2023-02-25T07:48:46;5.90;99.90
35894;DHT22;21994;48.204;16.516;2023-02-25T07:51:17;6.00;99.90
35894;DHT22;21994;48.204;16.516;2023-02-25T07:53:44;6.00;99.90
35894;DHT22;21994;48.204;16.516;2023-02-25T07:56:11;6.00;99.90
35894;DHT22;21994;48.204;16.516;2023-02-25T07:58:37;6.10;99.90
35894;DHT22;21994;48.204;16.516;2023-02-25T08:03:36;6.10;99.90
35894;DHT22;21994;48.204;16.516;2023-02-25T08:06:02;6.10;99.90
35894;DHT22;21994;48.204;16.516;2023-02-25T08:08:32;6.20;99.90
35894;DHT22;21994;48.204;16.516;2023-02-25T08:11:03;6.30;99.90
35894;DHT22;21994;48.204;16.516;2023-02-25T08:13:29;6.30;99.90
35894;DHT22;21994;48.204;16.516;2023-02-25T08:15:55;6.50;99.90
35894;DHT22;21994;48.204;16.516;2023-02-25T08:18:21;6.50;99.90
35894;DHT22;21994;48.204;16.516;2023-02-25T08:20:47;6.50;99.90
35894;DHT22;21994;48.204;16.516;2023-02-25T08:23:12;6.50;99.90
35894;DHT22;21994;48.204;16.516;2023-02-25T08:25:38;6.60;99.90
35894;DHT22;21994;48.204;16.516;2023-02-25T08:28:07;6.60;99.90
35894;DHT22;21994;48.204;16.516;2023-02-25T08:30:33;6.70;99.90
35894;DHT22;21994;48.204;16.516;2023-02-25T08:32:59;6.80;99.90
35894;DHT22;21994;48.204;16.516;2023-02-25T08:35:25;6.80;99.10
35894;DHT22;21994;48.204;16.516;2023-02-25T08:37:51;6.80;99.10
35894;DHT22;21994;48.204;16.516;2023-02-25T08:40:17;6.70;99.60
35894;DHT22;21994;48.204;16.516;2023-02-25T08:42:43;6.80;99.80
35894;DHT22;21994;48.204;16.516;2023-02-25T08:45:09;6.80;99.60
35894;DHT22;21994;48.204;16.516;2023-02-25T08:47:35;7.20;99.30
35894;DHT22;21994;48.204;16.516;2023-02-25T08:50:04;8.20;99.00
35894;DHT22;21994;48.204;16.516;2023-02-25T08:52:30;8.70;98.30
35894;DHT22;21994;48.204;16.516;2023-02-25T08:54:58;9.10;97.70
35894;DHT22;21994;48.204;16.516;2023-02-25T08:57:25;9.60;97.30
35894;DHT22;21994;48.204;16.516;2023-02-25T08:59:51;10.30;97.80
35894;DHT22;21994;48.204;16.516;2023-02-25T09:02:17;10.90;96.40
35894;DHT22;21994;48.204;16.516;2023-02-25T09:04:43;11.30;96.20
35894;DHT22;21994;48.204;16.516;2023-02-25T09:07:09;11.20;95.40
35894;DHT22;21994;48.204;16.516;2023-02-25T09:09:38;10.70;95.70
35894;DHT22;21994;48.204;16.516;2023-02-25T09:12:04;10.50;96.10
35894;DHT22;21994;48.204;16.516;2023-02-25T09:14:31;10.70;95.50
35894;DHT22;21994;48.204;16.516;2023-02-25T09:16:58;10.80;95.00
35894;DHT22;21994;48.204;16.516;2023-02-25T09:19:24;10.50;95.30
35894;DHT22;21994;48.204;16.516;2023-02-25T09:21:49;10.80;94.90
35894;DHT22;21994;48.204;16.516;2023-02-25T09:24:16;10.90;94.80
35894;DHT22;21994;48.204;16.516;2023-02-25T09:26:41;10.80;93.60
35894;DHT22;21994;48.204;16.516;2023-02-25T09:29:07;10.90;93.40
35894;DHT22;21994;48.204;16.516;2023-02-25T09:31:33;10.60;93.30
35894;DHT22;21994;48.204;16.516;2023-02-25T09:34:01;10.90;93.40
35894;DHT22;21994;48.204;16.516;2023-02-25T09:36:28;11.30;93.50
35894;DHT22;21994;48.204;16.516;2023-02-25T09:38:55;11.50;93.40
35894;DHT22;21994;48.204;16.516;2023-02-25T09:41:24;11.40;92.80
35894;DHT22;21994;48.204;16.516;2023-02-25T09:47:00;11.20;93.30
35894;DHT22;21994;48.204;16.516;2023-02-25T09:52:24;11.60;92.40
35894;DHT22;21994;48.204;16.516;2023-02-25T09:57:29;11.60;91.50
35894;DHT22;21994;48.204;16.516;2023-02-25T10:00:03;11.50;91.90
35894;DHT22;21994;48.204;16.516;2023-02-25T10:02:35;11.60;91.60
35894;DHT22;21994;48.204;16.516;2023-02-25T10:05:25;11.80;91.10
35894;DHT22;21994;48.204;16.516;2023-02-25T10:24:28;12.10;90.20
35894;DHT22;21994;48.204;16.516;2023-02-25T10:32:45;12.40;84.80
35894;DHT22;21994;48.204;16.516;2023-02-25T10:35:31;12.40;85.80
35894;DHT22;21994;48.204;16.516;2023-02-25T10:37:57;12.00;86.80
35894;DHT22;21994;48.204;16.516;2023-02-25T10:40:23;12.50;89.10
35894;DHT22;21994;48.204;16.516;2023-02-25T10:42:51;12.50;86.90
35894;DHT22;21994;48.204;16.516;2023-02-25T10:45:22;11.90;87.50
35894;DHT22;21994;48.204;16.516;2023-02-25T10:48:04;10.60;90.20
35894;DHT22;21994;48.204;16.516;2023-02-25T10:53:38;9.20;91.30
35894;DHT22;21994;48.204;16.516;2023-02-25T10:56:05;8.70;91.80
35894;DHT22;21994;48.204;16.516;2023-02-25T10:58:44;8.70;92.80
35894;DHT22;21994;48.204;16.516;2023-02-25T11:01:23;8.70;93.00
35894;DHT22;21994;48.204;16.516;2023-02-25T11:03:53;8.50;91.80
35894;DHT22;21994;48.204;16.516;2023-02-25T11:08:57;8.50;92.30
35894;DHT22;21994;48.204;16.516;2023-02-25T11:11:25;8.70;92.10
35894;DHT22;21994;48.204;16.516;2023-02-25T11:13:54;9.00;92.30
35894;DHT22;21994;48.204;16.516;2023-02-25T11:16:28;9.20;92.00
35894;DHT22;21994;48.204;16.516;2023-02-25T11:18:59;9.10;92.50
35894;DHT22;21994;48.204;16.516;2023-02-25T11:21:27;8.90;92.40
35894;DHT22;21994;48.204;16.516;2023-02-25T11:23:55;8.70;92.90
35894;DHT22;21994;48.204;16.516;2023-02-25T11:26:26;8.90;93.60
35894;DHT22;21994;48.204;16.516;2023-02-25T11:28:57;9.00;93.40
35894;DHT22;21994;48.204;16.516;2023-02-25T11:31:50;8.90;93.00
35894;DHT22;21994;48.204;16.516;2023-02-25T11:36:55;8.60;93.30
35894;DHT22;21994;48.204;16.516;2023-02-25T11:39:25;8.30;93.40
35894;DHT22;21994;48.204;16.516;2023-02-25T11:41:56;8.40;93.80
35894;DHT22;21994;48.204;16.516;2023-02-25T11:44:39;8.30;94.70
35894;DHT22;21994;48.204;16.516;2023-02-25T11:47:14;8.30;93.40
35894;DHT22;21994;48.204;16.516;2023-02-25T11:58:15;7.90;94.30
35894;DHT22;21994;48.204;16.516;2023-02-25T12:01:07;7.90;93.00
35894;DHT22;21994;48.204;16.516;2023-02-25T12:09:20;8.90;93.00
35894;DHT22;21994;48.204;16.516;2023-02-25T12:17:43;9.20;93.20
35894;DHT22;21994;48.204;16.516;2023-02-25T12:20:25;9.20;91.80
35894;DHT22;21994;48.204;16.516;2023-02-25T12:23:26;9.10;91.80
35894;DHT22;21994;48.204;16.516;2023-02-25T12:36:38;8.70;93.20
35894;DHT22;21994;48.204;16.516;2023-02-25T12:39:22;8.70;93.00
35894;DHT22;21994;48.204;16.516;2023-02-25T12:42:07;8.90;92.70
35894;DHT22;21994;48.204;16.516;2023-02-25T12:57:32;8.30;94.00
35894;DHT22;21994;48.204;16.516;2023-02-25T13:12:20;8.40;92.70
35894;DHT22;21994;48.204;16.516;2023-02-25T13:17:46;8.50;92.50
35894;DHT22;21994;48.204;16.516;2023-02-25T13:34:01;8.60;90.50
35894;DHT22;21994;48.204;16.516;2023-02-25T13:36:56;8.70;90.80
35894;DHT22;21994;48.204;16.516;2023-02-25T13:39:44;9.00;90.80
35894;DHT22;21994;48.204;16.516;2023-02-25T13:53:29;9.20;90.30
35894;DHT22;21994;48.204;16.516;2023-02-25T13:59:42;9.90;89.50
35894;DHT22;21994;48.204;16.516;2023-02-25T14:10:41;9.50;88.80
35894;DHT22;21994;48.204;16.516;2023-02-25T14:19:05;8.70;89.90
35894;DHT22;21994;48.204;16.516;2023-02-25T14:21:42;8.60;90.40
35894;DHT22;21994;48.204;16.516;2023-02-25T14:35:25;9.30;88.60
35894;DHT22;21994;48.204;16.516;2023-02-25T15:38:45;8.80;91.60
35894;DHT22;21994;48.204;16.516;2023-02-25T15:43:56;8.70;91.30
35894;DHT22;21994;48.204;16.516;2023-02-25T15:49:01;8.20;95.60
35894;DHT22;21994;48.204;16.516;2023-02-25T15:51:43;7.50;98.10
35894;DHT22;21994;48.204;16.516;2023-02-25T15:54:10;7.00;99.80
35894;DHT22;21994;48.204;16.516;2023-02-25T15:56:55;6.70;99.90
35894;DHT22;21994;48.204;16.516;2023-02-25T16:05:21;5.90;99.90
35894;DHT22;21994;48.204;16.516;2023-02-25T16:07:50;5.60;99.90
35894;DHT22;21994;48.204;16.516;2023-02-25T16:10:34;5.40;99.90
35894;DHT22;21994;48.204;16.516;2023-02-25T16:13:04;5.30;99.90
35894;DHT22;21994;48.204;16.516;2023-02-25T16:15:47;5.20;99.90
35894;DHT22;21994;48.204;16.516;2023-02-25T16:21:05;4.90;99.90
35894;DHT22;21994;48.204;16.516;2023-02-25T16:23:32;4.90;99.90
35894;DHT22;21994;48.204;16.516;2023-02-25T16:31:29;4.80;99.90
35894;DHT22;21994;48.204;16.516;2023-02-25T16:34:04;4.80;99.90
35894;DHT22;21994;48.204;16.516;2023-02-25T16:39:10;4.90;99.90
35894;DHT22;21994;48.204;16.516;2023-02-25T16:41:39;4.90;99.90
35894;DHT22;21994;48.204;16.516;2023-02-25T16:44:05;5.00;99.90
35894;DHT22;21994;48.204;16.516;2023-02-25T16:46:32;5.00;99.90
35894;DHT22;21994;48.204;16.516;2023-02-25T16:48:59;5.10;99.90
35894;DHT22;21994;48.204;16.516;2023-02-25T16:53:57;5.20;99.90
35894;DHT22;21994;48.204;16.516;2023-02-25T16:56:28;5.20;99.90
35894;DHT22;21994;48.204;16.516;2023-02-25T16:59:00;5.20;99.90
35894;DHT22;21994;48.204;16.516;2023-02-25T17:01:34;5.20;99.90
35894;DHT22;21994;48.204;16.516;2023-02-25T17:09:48;5.00;99.90
35894;DHT22;21994;48.204;16.516;2023-02-25T17:12:37;4.90;99.90
35894;DHT22;21994;48.204;16.516;2023-02-25T17:15:13;4.90;99.90
35894;DHT22;21994;48.204;16.516;2023-02-25T17:17:41;4.90;99.90
35894;DHT22;21994;48.204;16.516;2023-02-25T17:20:15;4.80;99.90
35894;DHT22;21994;48.204;16.516;2023-02-25T17:22:48;4.80;99.90
35894;DHT22;21994;48.204;16.516;2023-02-25T17:25:15;4.70;99.90
35894;DHT22;21994;48.204;16.516;2023-02-25T17:27:42;4.60;99.90
35894;DHT22;21994;48.204;16.516;2023-02-25T17:31:03;4.60;99.90
35894;DHT22;21994;48.204;16.516;2023-02-25T17:33:16;4.60;99.90
35894;DHT22;21994;48.204;16.516;2023-02-25T17:35:42;4.70;99.90
35894;DHT22;21994;48.204;16.516;2023-02-25T17:38:11;4.70;99.90
35894;DHT22;21994;48.204;16.516;2023-02-25T17:40:40;4.70;99.90
35894;DHT22;21994;48.204;16.516;2023-02-25T17:43:51;4.60;99.90
35894;DHT22;21994;48.204;16.516;2023-02-25T17:46:00;4.60;99.90
35894;DHT22;21994;48.204;16.516;2023-02-25T17:48:29;4.30;99.90
35894;DHT22;21994;48.204;16.516;2023-02-25T17:51:00;4.20;99.90
35894;DHT22;21994;48.204;16.516;2023-02-25T17:53:36;4.20;99.90
35894;DHT22;21994;48.204;16.516;2023-02-25T17:56:24;4.10;99.90
35894;DHT22;21994;48.204;16.516;2023-02-25T17:58:59;4.10;99.90
35894;DHT22;21994;48.204;16.516;2023-02-25T18:01:29;4.20;99.90
35894;DHT22;21994;48.204;16.516;2023-02-25T18:04:20;4.20;99.90
35894;DHT22;21994;48.204;16.516;2023-02-25T18:07:45;4.20;99.90
35894;DHT22;21994;48.204;16.516;2023-02-25T18:09:57;4.20;99.90
35894;DHT22;21994;48.204;16.516;2023-02-25T18:12:30;4.10;99.90
35894;DHT22;21994;48.204;16.516;2023-02-25T18:15:05;4.10;99.90
35894;DHT22;21994;48.204;16.516;2023-02-25T18:17:46;3.90;99.90
35894;DHT22;21994;48.204;16.516;2023-02-25T18:22:53;3.80;99.90
35894;DHT22;21994;48.204;16.516;2023-02-25T18:25:41;3.60;99.90
35894;DHT22;21994;48.204;16.516;2023-02-25T18:28:16;3.50;99.90
35894;DHT22;21994;48.204;16.516;2023-02-25T18:30:46;3.40;99.90
35894;DHT22;21994;48.204;16.516;2023-02-25T18:33:13;3.30;99.90
35894;DHT22;21994;48.204;16.516;2023-02-25T18:35:41;3.30;99.90
35894;DHT22;21994;48.204;16.516;2023-02-25T18:38:15;3.20;99.90
35894;DHT22;21994;48.204;16.516;2023-02-25T18:40:43;3.20;99.90
35894;DHT22;21994;48.204;16.516;2023-02-25T18:43:14;3.20;99.90
35894;DHT22;21994;48.204;16.516;2023-02-25T18:45:42;3.20;99.90
35894;DHT22;21994;48.204;16.516;2023-02-25T18:48:10;3.20;99.90
35894;DHT22;21994;48.204;16.516;2023-02-25T18:50:37;3.10;99.90
35894;DHT22;21994;48.204;16.516;2023-02-25T18:53:04;3.00;99.90
35894;DHT22;21994;48.204;16.516;2023-02-25T18:55:31;3.10;99.90
35894;DHT22;21994;48.204;16.516;2023-02-25T18:57:57;3.10;99.90
35894;DHT22;21994;48.204;16.516;2023-02-25T19:00:24;3.00;99.90
35894;DHT22;21994;48.204;16.516;2023-02-25T19:03:03;3.00;99.90
35894;DHT22;21994;48.204;16.516;2023-02-25T19:05:31;3.10;99.90
35894;DHT22;21994;48.204;16.516;2023-02-25T19:07:57;3.00;99.90
35894;DHT22;21994;48.204;16.516;2023-02-25T19:10:25;3.00;99.90
35894;DHT22;21994;48.204;16.516;2023-02-25T19:12:57;3.00;99.90
35894;DHT22;21994;48.204;16.516;2023-02-25T19:15:25;3.00;99.90
35894;DHT22;21994;48.204;16.516;2023-02-25T19:17:51;3.00;99.90
35894;DHT22;21994;48.204;16.516;2023-02-25T19:20:17;3.10;99.90
35894;DHT22;21994;48.204;16.516;2023-02-25T19:22:46;3.00;99.90
35894;DHT22;21994;48.204;16.516;2023-02-25T19:27:49;3.10;99.90
35894;DHT22;21994;48.204;16.516;2023-02-25T19:30:16;3.10;99.90
35894;DHT22;21994;48.204;16.516;2023-02-25T19:32:43;3.10;99.90
35894;DHT22;21994;48.204;16.516;2023-02-25T19:35:09;3.10;99.90
35894;DHT22;21994;48.204;16.516;2023-02-25T19:37:36;3.10;99.90
35894;DHT22;21994;48.204;16.516;2023-02-25T19:40:04;3.10;99.90
35894;DHT22;21994;48.204;16.516;2023-02-25T19:42:30;3.10;99.90
35894;DHT22;21994;48.204;16.516;2023-02-25T19:44:56;3.10;99.90
35894;DHT22;21994;48.204;16.516;2023-02-25T19:47:22;3.20;99.90
35894;DHT22;21994;48.204;16.516;2023-02-25T19:49:48;3.20;99.90
35894;DHT22;21994;48.204;16.516;2023-02-25T19:52:13;3.20;99.90
35894;DHT22;21994;48.204;16.516;2023-02-25T19:54:40;3.20;99.90
35894;DHT22;21994;48.204;16.516;2023-02-25T19:57:06;3.30;99.90
35894;DHT22;21994;48.204;16.516;2023-02-25T19:59:32;3.30;99.90
35894;DHT22;21994;48.204;16.516;2023-02-25T20:01:58;3.30;99.90
35894;DHT22;21994;48.204;16.516;2023-02-25T20:04:23;3.30;99.90
35894;DHT22;21994;48.204;16.516;2023-02-25T20:06:49;3.20;99.90
35894;DHT22;21994;48.204;16.516;2023-02-25T20:09:15;3.30;99.90
35894;DHT22;21994;48.204;16.516;2023-02-25T20:11:41;3.30;99.90
35894;DHT22;21994;48.204;16.516;2023-02-25T20:14:09;3.30;99.90
35894;DHT22;21994;48.204;16.516;2023-02-25T20:16:36;3.30;99.90
35894;DHT22;21994;48.204;16.516;2023-02-25T20:19:04;3.30;99.90